METAR Data
IDs: Format: Raw Decoded Include TAF

Data at: 0039 UTC 25 Apr 2019

METAR for:KMXO (Monticello Rgnl, IA, US)
Text:KMXO 250035Z AUTO 13005KT 10SM CLR 15/06 A2982 RMK AO2
Temperature: 15.0°C ( 59°F)
Dewpoint: 6.0°C ( 43°F) [RH = 55%]
Pressure (altimeter):29.82 inches Hg (1009.9 mb)
Winds:from the SE (130 degrees) at 6 MPH (5 knots; 2.6 m/s)
Visibility:10 or more sm (16+ km)
Ceiling:at least 12,000 feet AGL
Clouds:sky clear below 12,000 feet AGL
QC Flag:automated observation with no human augmentation